RWL Airport (Rawlins Muni/Harvey Field) Information

FAA: RWL - ICAO: KRWL

RWL Airport Location

State Wyoming
County Carbon
City Rawlins
RWL Airport is 2 miles northeast of Rawlins, WY.
Latitude 41-48-20.6000N
Longitude 107-12-01.2000W
Elevation 6,816ft

KRWL Airport METARs

METAR KRWL 281353Z AUTO 25014G23KT 10SM SCT060 02/M02 A3029 RMK AO2 SLP246 T00221022
Altimeter 30.29"
Temperature 2.2°C (36.0°F)
Wind 250° at 14KT with gusts to 23KT
Clouds scattered at 6,000ft
Visibility 10.0mi
Time observed: 2021-10-28T13:53:00Z

RWL Airport Details

Status Operational
Activation November 1937
Ownership Public
Usage Public
Chart CHEYENNE
ATC on-site No
Beacon schedule sunset-sunrise
Beacon color clear green

RWL Airport Contacts

Owner RAWLINS CARBON CO ARPT BOARD
Owner address P.O. BOX 1363, RAWLINS, WY 82301
Owner phone 307-324-2361
Manager SNAKE RIVER SPORTING CLUB OA INC
Manager address 14855 SPORTING CLUB RD, JACKSON, WY 83001
Manager phone 307-201-2560

RWL Airport (Rawlins Muni/Harvey Field) Radio Frequencies

RWL (Airport) Radio Frequencies

UNICOM 123
Common traffic advisory frequency (CTAF) 123